<?xml version="1.0" encoding="UTF-8" standalone="no" ?>
<gpx xmlns="http://www.topografix.com/GPX/1/1" xmlns:xsi="http://www.w3.org/2001/XMLSchema-instance" xsi:schemaLocation="http://www.topografix.com/GPX/1/1 http://www.topografix.com/GPX/1/1/gpx.xsd" version="1.1" creator="VisuGPX - https://www.visugpx.com">
  <metadata>
    <name>RPM Gr 2 : LA BRAGUE - LE BRUGUET</name>
    <desc><![CDATA[Départ Valbonne, direction sud - monter les escaliers - La Gonelle par la piste - descendre en direction du vallon du Bruguet - continuer dans le P.D. en direction du pont des Tamarins - retour à Valbonne en longeant constamment la Brague - visite de Valbonne et de l'abbaye.]]></desc>
  </metadata>
  <trk>
    <name><![CDATA[Randonnée du 25/01/2019 à 19:02]]></name>
    <trkseg>
      <trkpt lat="43.64232" lon="7.01004">
        <ele>210</ele>
        <time>2019-01-26T13:59:31+01:00</time>
      </trkpt>
      <trkpt lat="43.64093" lon="7.00955">
        <ele>194</ele>
        <time>2019-01-26T13:59:36+01:00</time>
      </trkpt>
      <trkpt lat="43.6405" lon="7.00937">
        <ele>187</ele>
        <time>2019-01-26T13:59:41+01:00</time>
      </trkpt>
      <trkpt lat="43.64062" lon="7.00856">
        <ele>187</ele>
        <time>2019-01-26T13:59:46+01:00</time>
      </trkpt>
      <trkpt lat="43.64003" lon="7.00856">
        <ele>180</ele>
        <time>2019-01-26T13:59:51+01:00</time>
      </trkpt>
      <trkpt lat="43.63888" lon="7.00877">
        <ele>209</ele>
        <time>2019-01-26T13:59:56+01:00</time>
      </trkpt>
      <trkpt lat="43.63786" lon="7.00822">
        <ele>219</ele>
        <time>2019-01-26T14:00:01+01:00</time>
      </trkpt>
      <trkpt lat="43.63696" lon="7.00774">
        <ele>212</ele>
        <time>2019-01-26T14:00:06+01:00</time>
      </trkpt>
      <trkpt lat="43.63581" lon="7.00712">
        <ele>222</ele>
        <time>2019-01-26T14:00:11+01:00</time>
      </trkpt>
      <trkpt lat="43.63522" lon="7.00843">
        <ele>238</ele>
        <time>2019-01-26T14:00:16+01:00</time>
      </trkpt>
      <trkpt lat="43.6352" lon="7.00888">
        <ele>243</ele>
        <time>2019-01-26T14:00:21+01:00</time>
      </trkpt>
      <trkpt lat="43.63496" lon="7.00886">
        <ele>249</ele>
        <time>2019-01-26T14:00:26+01:00</time>
      </trkpt>
      <trkpt lat="43.63437" lon="7.01002">
        <ele>260</ele>
        <time>2019-01-26T14:00:31+01:00</time>
      </trkpt>
      <trkpt lat="43.63513" lon="7.01259">
        <ele>261</ele>
        <time>2019-01-26T14:00:36+01:00</time>
      </trkpt>
      <trkpt lat="43.63547" lon="7.01367">
        <ele>264</ele>
        <time>2019-01-26T14:00:41+01:00</time>
      </trkpt>
      <trkpt lat="43.63561" lon="7.01534">
        <ele>255</ele>
        <time>2019-01-26T14:00:46+01:00</time>
      </trkpt>
      <trkpt lat="43.63593" lon="7.01628">
        <ele>253</ele>
        <time>2019-01-26T14:00:51+01:00</time>
      </trkpt>
      <trkpt lat="43.63586" lon="7.01706">
        <ele>250</ele>
        <time>2019-01-26T14:00:56+01:00</time>
      </trkpt>
      <trkpt lat="43.63573" lon="7.01753">
        <ele>247</ele>
        <time>2019-01-26T14:01:01+01:00</time>
      </trkpt>
      <trkpt lat="43.63583" lon="7.0192">
        <ele>244</ele>
        <time>2019-01-26T14:01:06+01:00</time>
      </trkpt>
      <trkpt lat="43.6357" lon="7.01991">
        <ele>243</ele>
        <time>2019-01-26T14:01:11+01:00</time>
      </trkpt>
      <trkpt lat="43.63592" lon="7.02017">
        <ele>244</ele>
        <time>2019-01-26T14:01:16+01:00</time>
      </trkpt>
      <trkpt lat="43.636" lon="7.02079">
        <ele>243</ele>
        <time>2019-01-26T14:01:21+01:00</time>
      </trkpt>
      <trkpt lat="43.63635" lon="7.02133">
        <ele>240</ele>
        <time>2019-01-26T14:01:26+01:00</time>
      </trkpt>
      <trkpt lat="43.63621" lon="7.02176">
        <ele>242</ele>
        <time>2019-01-26T14:01:31+01:00</time>
      </trkpt>
      <trkpt lat="43.63525" lon="7.02165">
        <ele>244</ele>
        <time>2019-01-26T14:01:36+01:00</time>
      </trkpt>
      <trkpt lat="43.63409" lon="7.02227">
        <ele>235</ele>
        <time>2019-01-26T14:01:41+01:00</time>
      </trkpt>
      <trkpt lat="43.63348" lon="7.02379">
        <ele>225</ele>
        <time>2019-01-26T14:01:46+01:00</time>
      </trkpt>
      <trkpt lat="43.63351" lon="7.02416">
        <ele>223</ele>
        <time>2019-01-26T14:01:51+01:00</time>
      </trkpt>
      <trkpt lat="43.63395" lon="7.0245">
        <ele>221</ele>
        <time>2019-01-26T14:01:56+01:00</time>
      </trkpt>
      <trkpt lat="43.6343" lon="7.0244">
        <ele>219</ele>
        <time>2019-01-26T14:02:01+01:00</time>
      </trkpt>
      <trkpt lat="43.63432" lon="7.02467">
        <ele>217</ele>
        <time>2019-01-26T14:02:06+01:00</time>
      </trkpt>
      <trkpt lat="43.63418" lon="7.02517">
        <ele>218</ele>
        <time>2019-01-26T14:02:11+01:00</time>
      </trkpt>
      <trkpt lat="43.6343" lon="7.02579">
        <ele>215</ele>
        <time>2019-01-26T14:02:16+01:00</time>
      </trkpt>
      <trkpt lat="43.63432" lon="7.02654">
        <ele>213</ele>
        <time>2019-01-26T14:02:21+01:00</time>
      </trkpt>
      <trkpt lat="43.63423" lon="7.02678">
        <ele>213</ele>
        <time>2019-01-26T14:02:26+01:00</time>
      </trkpt>
      <trkpt lat="43.63339" lon="7.02691">
        <ele>207</ele>
        <time>2019-01-26T14:02:31+01:00</time>
      </trkpt>
      <trkpt lat="43.63267" lon="7.02695">
        <ele>203</ele>
        <time>2019-01-26T14:02:36+01:00</time>
      </trkpt>
      <trkpt lat="43.63199" lon="7.02661">
        <ele>190</ele>
        <time>2019-01-26T14:02:41+01:00</time>
      </trkpt>
      <trkpt lat="43.6312" lon="7.02691">
        <ele>176</ele>
        <time>2019-01-26T14:02:46+01:00</time>
      </trkpt>
      <trkpt lat="43.63086" lon="7.02725">
        <ele>171</ele>
        <time>2019-01-26T14:02:51+01:00</time>
      </trkpt>
      <trkpt lat="43.63048" lon="7.02783">
        <ele>165</ele>
        <time>2019-01-26T14:02:56+01:00</time>
      </trkpt>
      <trkpt lat="43.63031" lon="7.02804">
        <ele>163</ele>
        <time>2019-01-26T14:03:01+01:00</time>
      </trkpt>
      <trkpt lat="43.63006" lon="7.02867">
        <ele>162</ele>
        <time>2019-01-26T14:03:06+01:00</time>
      </trkpt>
      <trkpt lat="43.62968" lon="7.02939">
        <ele>156</ele>
        <time>2019-01-26T14:03:11+01:00</time>
      </trkpt>
      <trkpt lat="43.62954" lon="7.0301">
        <ele>153</ele>
        <time>2019-01-26T14:03:16+01:00</time>
      </trkpt>
      <trkpt lat="43.62963" lon="7.03075">
        <ele>151</ele>
        <time>2019-01-26T14:03:21+01:00</time>
      </trkpt>
      <trkpt lat="43.62982" lon="7.03122">
        <ele>151</ele>
        <time>2019-01-26T14:03:26+01:00</time>
      </trkpt>
      <trkpt lat="43.62964" lon="7.03145">
        <ele>151</ele>
        <time>2019-01-26T14:03:31+01:00</time>
      </trkpt>
      <trkpt lat="43.63041" lon="7.03302">
        <ele>151</ele>
        <time>2019-01-26T14:03:36+01:00</time>
      </trkpt>
      <trkpt lat="43.63087" lon="7.03478">
        <ele>144</ele>
        <time>2019-01-26T14:03:41+01:00</time>
      </trkpt>
      <trkpt lat="43.6314" lon="7.03607">
        <ele>141</ele>
        <time>2019-01-26T14:03:46+01:00</time>
      </trkpt>
      <trkpt lat="43.63165" lon="7.03665">
        <ele>141</ele>
        <time>2019-01-26T14:03:51+01:00</time>
      </trkpt>
      <trkpt lat="43.63165" lon="7.03714">
        <ele>148</ele>
        <time>2019-01-26T14:03:56+01:00</time>
      </trkpt>
      <trkpt lat="43.63112" lon="7.03658">
        <ele>162</ele>
        <time>2019-01-26T14:04:01+01:00</time>
      </trkpt>
      <trkpt lat="43.631" lon="7.03663">
        <ele>166</ele>
        <time>2019-01-26T14:04:06+01:00</time>
      </trkpt>
      <trkpt lat="43.63098" lon="7.03678">
        <ele>168</ele>
        <time>2019-01-26T14:04:11+01:00</time>
      </trkpt>
      <trkpt lat="43.63082" lon="7.03678">
        <ele>172</ele>
        <time>2019-01-26T14:04:16+01:00</time>
      </trkpt>
      <trkpt lat="43.63006" lon="7.03618">
        <ele>183</ele>
        <time>2019-01-26T14:04:21+01:00</time>
      </trkpt>
      <trkpt lat="43.62969" lon="7.03594">
        <ele>188</ele>
        <time>2019-01-26T14:04:26+01:00</time>
      </trkpt>
      <trkpt lat="43.62927" lon="7.0359">
        <ele>193</ele>
        <time>2019-01-26T14:04:31+01:00</time>
      </trkpt>
      <trkpt lat="43.62898" lon="7.0357">
        <ele>195</ele>
        <time>2019-01-26T14:04:36+01:00</time>
      </trkpt>
      <trkpt lat="43.6286" lon="7.0359">
        <ele>200</ele>
        <time>2019-01-26T14:04:41+01:00</time>
      </trkpt>
      <trkpt lat="43.62882" lon="7.03682">
        <ele>204</ele>
        <time>2019-01-26T14:04:46+01:00</time>
      </trkpt>
      <trkpt lat="43.62896" lon="7.03798">
        <ele>204</ele>
        <time>2019-01-26T14:04:51+01:00</time>
      </trkpt>
      <trkpt lat="43.62913" lon="7.03854">
        <ele>202</ele>
        <time>2019-01-26T14:04:56+01:00</time>
      </trkpt>
      <trkpt lat="43.6291" lon="7.03914">
        <ele>201</ele>
        <time>2019-01-26T14:05:01+01:00</time>
      </trkpt>
      <trkpt lat="43.62943" lon="7.03995">
        <ele>195</ele>
        <time>2019-01-26T14:05:06+01:00</time>
      </trkpt>
      <trkpt lat="43.62954" lon="7.04051">
        <ele>196</ele>
        <time>2019-01-26T14:05:11+01:00</time>
      </trkpt>
      <trkpt lat="43.62977" lon="7.04079">
        <ele>198</ele>
        <time>2019-01-26T14:05:16+01:00</time>
      </trkpt>
      <trkpt lat="43.63033" lon="7.04081">
        <ele>197</ele>
        <time>2019-01-26T14:05:21+01:00</time>
      </trkpt>
      <trkpt lat="43.63093" lon="7.04169">
        <ele>199</ele>
        <time>2019-01-26T14:05:26+01:00</time>
      </trkpt>
      <trkpt lat="43.63169" lon="7.04308">
        <ele>194</ele>
        <time>2019-01-26T14:05:31+01:00</time>
      </trkpt>
      <trkpt lat="43.6318" lon="7.04328">
        <ele>192</ele>
        <time>2019-01-26T14:05:36+01:00</time>
      </trkpt>
      <trkpt lat="43.63211" lon="7.04399">
        <ele>189</ele>
        <time>2019-01-26T14:05:41+01:00</time>
      </trkpt>
      <trkpt lat="43.63109" lon="7.04489">
        <ele>177</ele>
        <time>2019-01-26T14:05:46+01:00</time>
      </trkpt>
      <trkpt lat="43.63171" lon="7.0456">
        <ele>168</ele>
        <time>2019-01-26T14:05:51+01:00</time>
      </trkpt>
      <trkpt lat="43.63266" lon="7.04581">
        <ele>159</ele>
        <time>2019-01-26T14:05:56+01:00</time>
      </trkpt>
      <trkpt lat="43.63286" lon="7.04609">
        <ele>154</ele>
        <time>2019-01-26T14:06:01+01:00</time>
      </trkpt>
      <trkpt lat="43.63255" lon="7.04667">
        <ele>149</ele>
        <time>2019-01-26T14:06:06+01:00</time>
      </trkpt>
      <trkpt lat="43.63188" lon="7.04686">
        <ele>145</ele>
        <time>2019-01-26T14:06:11+01:00</time>
      </trkpt>
      <trkpt lat="43.63249" lon="7.04763">
        <ele>136</ele>
        <time>2019-01-26T14:06:16+01:00</time>
      </trkpt>
      <trkpt lat="43.63267" lon="7.04819">
        <ele>131</ele>
        <time>2019-01-26T14:06:21+01:00</time>
      </trkpt>
      <trkpt lat="43.63211" lon="7.04804">
        <ele>129</ele>
        <time>2019-01-26T14:06:26+01:00</time>
      </trkpt>
      <trkpt lat="43.63193" lon="7.04888">
        <ele>130</ele>
        <time>2019-01-26T14:06:31+01:00</time>
      </trkpt>
      <trkpt lat="43.63201" lon="7.04937">
        <ele>127</ele>
        <time>2019-01-26T14:06:36+01:00</time>
      </trkpt>
      <trkpt lat="43.63191" lon="7.04997">
        <ele>125</ele>
        <time>2019-01-26T14:06:41+01:00</time>
      </trkpt>
      <trkpt lat="43.63214" lon="7.05077">
        <ele>121</ele>
        <time>2019-01-26T14:06:46+01:00</time>
      </trkpt>
      <trkpt lat="43.63188" lon="7.05178">
        <ele>122</ele>
        <time>2019-01-26T14:06:51+01:00</time>
      </trkpt>
      <trkpt lat="43.63188" lon="7.05229">
        <ele>119</ele>
        <time>2019-01-26T14:06:56+01:00</time>
      </trkpt>
      <trkpt lat="43.63211" lon="7.05289">
        <ele>113</ele>
        <time>2019-01-26T14:07:01+01:00</time>
      </trkpt>
      <trkpt lat="43.63228" lon="7.05296">
        <ele>109</ele>
        <time>2019-01-26T14:07:06+01:00</time>
      </trkpt>
      <trkpt lat="43.63247" lon="7.05353">
        <ele>102</ele>
        <time>2019-01-26T14:07:11+01:00</time>
      </trkpt>
      <trkpt lat="43.63242" lon="7.05375">
        <ele>100</ele>
        <time>2019-01-26T14:07:16+01:00</time>
      </trkpt>
      <trkpt lat="43.6318" lon="7.05486">
        <ele>93</ele>
        <time>2019-01-26T14:07:21+01:00</time>
      </trkpt>
      <trkpt lat="43.63166" lon="7.05514">
        <ele>92</ele>
        <time>2019-01-26T14:07:26+01:00</time>
      </trkpt>
      <trkpt lat="43.63154" lon="7.05639">
        <ele>94</ele>
        <time>2019-01-26T14:07:31+01:00</time>
      </trkpt>
      <trkpt lat="43.63152" lon="7.05669">
        <ele>98</ele>
        <time>2019-01-26T14:07:36+01:00</time>
      </trkpt>
      <trkpt lat="43.63174" lon="7.05716">
        <ele>95</ele>
        <time>2019-01-26T14:07:41+01:00</time>
      </trkpt>
      <trkpt lat="43.63166" lon="7.05753">
        <ele>98</ele>
        <time>2019-01-26T14:07:46+01:00</time>
      </trkpt>
      <trkpt lat="43.63084" lon="7.05826">
        <ele>87</ele>
        <time>2019-01-26T14:07:51+01:00</time>
      </trkpt>
      <trkpt lat="43.63056" lon="7.05843">
        <ele>88</ele>
        <time>2019-01-26T14:07:56+01:00</time>
      </trkpt>
      <trkpt lat="43.6303" lon="7.05948">
        <ele>89</ele>
        <time>2019-01-26T14:08:01+01:00</time>
      </trkpt>
      <trkpt lat="43.63036" lon="7.06044">
        <ele>95</ele>
        <time>2019-01-26T14:08:06+01:00</time>
      </trkpt>
      <trkpt lat="43.63064" lon="7.06109">
        <ele>88</ele>
        <time>2019-01-26T14:08:11+01:00</time>
      </trkpt>
      <trkpt lat="43.62989" lon="7.06278">
        <ele>76</ele>
        <time>2019-01-26T14:08:16+01:00</time>
      </trkpt>
      <trkpt lat="43.63081" lon="7.06268">
        <ele>73</ele>
        <time>2019-01-26T14:08:21+01:00</time>
      </trkpt>
      <trkpt lat="43.63089" lon="7.06291">
        <ele>70</ele>
        <time>2019-01-26T14:08:26+01:00</time>
      </trkpt>
      <trkpt lat="43.63087" lon="7.0631">
        <ele>70</ele>
        <time>2019-01-26T14:08:31+01:00</time>
      </trkpt>
      <trkpt lat="43.63159" lon="7.06345">
        <ele>70</ele>
        <time>2019-01-26T14:08:36+01:00</time>
      </trkpt>
      <trkpt lat="43.63194" lon="7.06325">
        <ele>71</ele>
        <time>2019-01-26T14:08:41+01:00</time>
      </trkpt>
      <trkpt lat="43.63185" lon="7.06233">
        <ele>70</ele>
        <time>2019-01-26T14:08:46+01:00</time>
      </trkpt>
      <trkpt lat="43.63168" lon="7.06162">
        <ele>71</ele>
        <time>2019-01-26T14:08:51+01:00</time>
      </trkpt>
      <trkpt lat="43.63101" lon="7.06087">
        <ele>71</ele>
        <time>2019-01-26T14:08:56+01:00</time>
      </trkpt>
      <trkpt lat="43.63081" lon="7.06034">
        <ele>71</ele>
        <time>2019-01-26T14:09:01+01:00</time>
      </trkpt>
      <trkpt lat="43.63078" lon="7.05986">
        <ele>72</ele>
        <time>2019-01-26T14:09:06+01:00</time>
      </trkpt>
      <trkpt lat="43.63123" lon="7.05868">
        <ele>73</ele>
        <time>2019-01-26T14:09:11+01:00</time>
      </trkpt>
      <trkpt lat="43.63221" lon="7.05826">
        <ele>80</ele>
        <time>2019-01-26T14:09:16+01:00</time>
      </trkpt>
      <trkpt lat="43.63249" lon="7.05802">
        <ele>80</ele>
        <time>2019-01-26T14:09:21+01:00</time>
      </trkpt>
      <trkpt lat="43.63249" lon="7.05753">
        <ele>80</ele>
        <time>2019-01-26T14:09:26+01:00</time>
      </trkpt>
      <trkpt lat="43.63201" lon="7.05697">
        <ele>81</ele>
        <time>2019-01-26T14:09:31+01:00</time>
      </trkpt>
      <trkpt lat="43.63185" lon="7.05669">
        <ele>83</ele>
        <time>2019-01-26T14:09:36+01:00</time>
      </trkpt>
      <trkpt lat="43.63205" lon="7.05583">
        <ele>81</ele>
        <time>2019-01-26T14:09:41+01:00</time>
      </trkpt>
      <trkpt lat="43.63232" lon="7.0551">
        <ele>82</ele>
        <time>2019-01-26T14:09:46+01:00</time>
      </trkpt>
      <trkpt lat="43.63308" lon="7.05469">
        <ele>90</ele>
        <time>2019-01-26T14:09:51+01:00</time>
      </trkpt>
      <trkpt lat="43.63351" lon="7.05433">
        <ele>90</ele>
        <time>2019-01-26T14:09:56+01:00</time>
      </trkpt>
      <trkpt lat="43.63398" lon="7.0533">
        <ele>90</ele>
        <time>2019-01-26T14:10:01+01:00</time>
      </trkpt>
      <trkpt lat="43.63432" lon="7.05246">
        <ele>90</ele>
        <time>2019-01-26T14:10:06+01:00</time>
      </trkpt>
      <trkpt lat="43.63435" lon="7.05244">
        <ele>90</ele>
        <time>2019-01-26T14:10:11+01:00</time>
      </trkpt>
      <trkpt lat="43.63474" lon="7.0515">
        <ele>90</ele>
        <time>2019-01-26T14:10:16+01:00</time>
      </trkpt>
      <trkpt lat="43.63479" lon="7.05051">
        <ele>92</ele>
        <time>2019-01-26T14:10:21+01:00</time>
      </trkpt>
      <trkpt lat="43.63446" lon="7.04926">
        <ele>95</ele>
        <time>2019-01-26T14:10:26+01:00</time>
      </trkpt>
      <trkpt lat="43.6344" lon="7.04909">
        <ele>95</ele>
        <time>2019-01-26T14:10:31+01:00</time>
      </trkpt>
      <trkpt lat="43.63454" lon="7.04776">
        <ele>96</ele>
        <time>2019-01-26T14:10:36+01:00</time>
      </trkpt>
      <trkpt lat="43.63469" lon="7.04643">
        <ele>97</ele>
        <time>2019-01-26T14:10:41+01:00</time>
      </trkpt>
      <trkpt lat="43.6346" lon="7.04592">
        <ele>100</ele>
        <time>2019-01-26T14:10:46+01:00</time>
      </trkpt>
      <trkpt lat="43.63413" lon="7.04495">
        <ele>113</ele>
        <time>2019-01-26T14:10:51+01:00</time>
      </trkpt>
      <trkpt lat="43.63384" lon="7.04339">
        <ele>104</ele>
        <time>2019-01-26T14:10:56+01:00</time>
      </trkpt>
      <trkpt lat="43.63339" lon="7.04248">
        <ele>110</ele>
        <time>2019-01-26T14:11:01+01:00</time>
      </trkpt>
      <trkpt lat="43.63298" lon="7.04214">
        <ele>113</ele>
        <time>2019-01-26T14:11:06+01:00</time>
      </trkpt>
      <trkpt lat="43.63291" lon="7.04169">
        <ele>113</ele>
        <time>2019-01-26T14:11:11+01:00</time>
      </trkpt>
      <trkpt lat="43.633" lon="7.04109">
        <ele>111</ele>
        <time>2019-01-26T14:11:16+01:00</time>
      </trkpt>
      <trkpt lat="43.63252" lon="7.04014">
        <ele>111</ele>
        <time>2019-01-26T14:11:21+01:00</time>
      </trkpt>
      <trkpt lat="43.63246" lon="7.03948">
        <ele>117</ele>
        <time>2019-01-26T14:11:26+01:00</time>
      </trkpt>
      <trkpt lat="43.6325" lon="7.03871">
        <ele>119</ele>
        <time>2019-01-26T14:11:31+01:00</time>
      </trkpt>
      <trkpt lat="43.63328" lon="7.03806">
        <ele>122</ele>
        <time>2019-01-26T14:11:36+01:00</time>
      </trkpt>
      <trkpt lat="43.63413" lon="7.03791">
        <ele>126</ele>
        <time>2019-01-26T14:11:41+01:00</time>
      </trkpt>
      <trkpt lat="43.63451" lon="7.03828">
        <ele>122</ele>
        <time>2019-01-26T14:11:46+01:00</time>
      </trkpt>
      <trkpt lat="43.63491" lon="7.03787">
        <ele>132</ele>
        <time>2019-01-26T14:11:51+01:00</time>
      </trkpt>
      <trkpt lat="43.63528" lon="7.03759">
        <ele>130</ele>
        <time>2019-01-26T14:11:56+01:00</time>
      </trkpt>
      <trkpt lat="43.63513" lon="7.0366">
        <ele>141</ele>
        <time>2019-01-26T14:12:01+01:00</time>
      </trkpt>
      <trkpt lat="43.6357" lon="7.03592">
        <ele>142</ele>
        <time>2019-01-26T14:12:06+01:00</time>
      </trkpt>
      <trkpt lat="43.63589" lon="7.03525">
        <ele>144</ele>
        <time>2019-01-26T14:12:11+01:00</time>
      </trkpt>
      <trkpt lat="43.63587" lon="7.03474">
        <ele>147</ele>
        <time>2019-01-26T14:12:16+01:00</time>
      </trkpt>
      <trkpt lat="43.6357" lon="7.03521">
        <ele>150</ele>
        <time>2019-01-26T14:12:21+01:00</time>
      </trkpt>
      <trkpt lat="43.63449" lon="7.03626">
        <ele>164</ele>
        <time>2019-01-26T14:12:26+01:00</time>
      </trkpt>
      <trkpt lat="43.63395" lon="7.03639">
        <ele>170</ele>
        <time>2019-01-26T14:12:31+01:00</time>
      </trkpt>
      <trkpt lat="43.63309" lon="7.03581">
        <ele>182</ele>
        <time>2019-01-26T14:12:36+01:00</time>
      </trkpt>
      <trkpt lat="43.6328" lon="7.03517">
        <ele>187</ele>
        <time>2019-01-26T14:12:41+01:00</time>
      </trkpt>
      <trkpt lat="43.63274" lon="7.03448">
        <ele>194</ele>
        <time>2019-01-26T14:12:46+01:00</time>
      </trkpt>
      <trkpt lat="43.63224" lon="7.03431">
        <ele>196</ele>
        <time>2019-01-26T14:12:51+01:00</time>
      </trkpt>
      <trkpt lat="43.63196" lon="7.03381">
        <ele>199</ele>
        <time>2019-01-26T14:12:56+01:00</time>
      </trkpt>
      <trkpt lat="43.63246" lon="7.03397">
        <ele>202</ele>
        <time>2019-01-26T14:13:01+01:00</time>
      </trkpt>
      <trkpt lat="43.63378" lon="7.03354">
        <ele>203</ele>
        <time>2019-01-26T14:13:06+01:00</time>
      </trkpt>
      <trkpt lat="43.63497" lon="7.03251">
        <ele>199</ele>
        <time>2019-01-26T14:13:11+01:00</time>
      </trkpt>
      <trkpt lat="43.63517" lon="7.03137">
        <ele>196</ele>
        <time>2019-01-26T14:13:16+01:00</time>
      </trkpt>
      <trkpt lat="43.6352" lon="7.03002">
        <ele>194</ele>
        <time>2019-01-26T14:13:21+01:00</time>
      </trkpt>
      <trkpt lat="43.63524" lon="7.02892">
        <ele>192</ele>
        <time>2019-01-26T14:13:26+01:00</time>
      </trkpt>
      <trkpt lat="43.63497" lon="7.0283">
        <ele>192</ele>
        <time>2019-01-26T14:13:31+01:00</time>
      </trkpt>
      <trkpt lat="43.63496" lon="7.02798">
        <ele>192</ele>
        <time>2019-01-26T14:13:36+01:00</time>
      </trkpt>
      <trkpt lat="43.63576" lon="7.02733">
        <ele>186</ele>
        <time>2019-01-26T14:13:41+01:00</time>
      </trkpt>
      <trkpt lat="43.63628" lon="7.02648">
        <ele>185</ele>
        <time>2019-01-26T14:13:46+01:00</time>
      </trkpt>
      <trkpt lat="43.63626" lon="7.02611">
        <ele>188</ele>
        <time>2019-01-26T14:13:51+01:00</time>
      </trkpt>
      <trkpt lat="43.63747" lon="7.02487">
        <ele>203</ele>
        <time>2019-01-26T14:13:56+01:00</time>
      </trkpt>
      <trkpt lat="43.638" lon="7.02399">
        <ele>201</ele>
        <time>2019-01-26T14:14:01+01:00</time>
      </trkpt>
      <trkpt lat="43.63825" lon="7.02244">
        <ele>206</ele>
        <time>2019-01-26T14:14:06+01:00</time>
      </trkpt>
      <trkpt lat="43.63826" lon="7.0221">
        <ele>205</ele>
        <time>2019-01-26T14:14:11+01:00</time>
      </trkpt>
      <trkpt lat="43.63808" lon="7.02141">
        <ele>203</ele>
        <time>2019-01-26T14:14:16+01:00</time>
      </trkpt>
      <trkpt lat="43.63819" lon="7.02028">
        <ele>194</ele>
        <time>2019-01-26T14:14:21+01:00</time>
      </trkpt>
      <trkpt lat="43.63845" lon="7.01937">
        <ele>188</ele>
        <time>2019-01-26T14:14:26+01:00</time>
      </trkpt>
      <trkpt lat="43.63845" lon="7.01822">
        <ele>183</ele>
        <time>2019-01-26T14:14:31+01:00</time>
      </trkpt>
      <trkpt lat="43.63856" lon="7.01852">
        <ele>179</ele>
        <time>2019-01-26T14:14:36+01:00</time>
      </trkpt>
      <trkpt lat="43.63873" lon="7.01759">
        <ele>172</ele>
        <time>2019-01-26T14:14:41+01:00</time>
      </trkpt>
      <trkpt lat="43.63856" lon="7.01697">
        <ele>173</ele>
        <time>2019-01-26T14:14:46+01:00</time>
      </trkpt>
      <trkpt lat="43.63839" lon="7.01667">
        <ele>177</ele>
        <time>2019-01-26T14:14:51+01:00</time>
      </trkpt>
      <trkpt lat="43.63833" lon="7.01633">
        <ele>176</ele>
        <time>2019-01-26T14:14:56+01:00</time>
      </trkpt>
      <trkpt lat="43.6385" lon="7.01611">
        <ele>173</ele>
        <time>2019-01-26T14:15:01+01:00</time>
      </trkpt>
      <trkpt lat="43.6384" lon="7.01543">
        <ele>179</ele>
        <time>2019-01-26T14:15:06+01:00</time>
      </trkpt>
      <trkpt lat="43.63856" lon="7.01442">
        <ele>190</ele>
        <time>2019-01-26T14:15:11+01:00</time>
      </trkpt>
      <trkpt lat="43.63878" lon="7.0136">
        <ele>198</ele>
        <time>2019-01-26T14:15:16+01:00</time>
      </trkpt>
      <trkpt lat="43.63879" lon="7.01292">
        <ele>199</ele>
        <time>2019-01-26T14:15:21+01:00</time>
      </trkpt>
      <trkpt lat="43.6387" lon="7.01257">
        <ele>196</ele>
        <time>2019-01-26T14:15:26+01:00</time>
      </trkpt>
      <trkpt lat="43.63887" lon="7.0118">
        <ele>192</ele>
        <time>2019-01-26T14:15:31+01:00</time>
      </trkpt>
      <trkpt lat="43.64041" lon="7.00974">
        <ele>188</ele>
        <time>2019-01-26T14:15:36+01:00</time>
      </trkpt>
      <trkpt lat="43.64053" lon="7.00942">
        <ele>188</ele>
        <time>2019-01-26T14:15:41+01:00</time>
      </trkpt>
      <trkpt lat="43.64235" lon="7.01002">
        <ele>210</ele>
        <time>2019-01-26T14:15:46+01:00</time>
      </trkpt>
    </trkseg>
  </trk>
</gpx>